Time;durP1;ratioP1;P1;durP2;ratioP2;P2;SDS_P1;SDS_P2;PMS_P1;PMS_P2;Temp;Humidity;BMP_temperature;BMP_pressure;BME280_temperature;BME280_humidity;BME280_pressure;Samples;Min_cycle;Max_cycle;Signal;HPM_P1;HPM_P2
2022/10/08 00:00:48;;;;;;;14.68;6.50;;;15.30;99.90;;;;;;4978481;28;20468;-77
2022/10/08 00:03:16;;;;;;;11.18;5.72;;;15.30;99.90;;;;;;4977968;28;20114;-77
2022/10/08 00:05:41;;;;;;;11.55;5.63;;;15.30;99.90;;;;;;4978422;28;20464;-77
2022/10/08 00:08:08;;;;;;;10.45;6.13;;;15.30;99.90;;;;;;4995257;28;20126;-78
2022/10/08 00:10:35;;;;;;;9.10;5.95;;;15.30;99.90;;;;;;4995186;28;20542;-76
2022/10/08 00:13:01;;;;;;;12.45;5.90;;;15.30;99.90;;;;;;4976990;28;20030;-76
2022/10/08 00:15:27;;;;;;;13.52;5.75;;;15.30;99.90;;;;;;4993813;28;20022;-77
2022/10/08 00:17:53;;;;;;;13.82;5.93;;;15.30;99.90;;;;;;4979208;28;20036;-77
2022/10/08 00:20:20;;;;;;;11.20;5.30;;;15.30;99.90;;;;;;5000187;28;20456;-76
2022/10/08 00:22:46;;;;;;;13.65;5.90;;;15.30;99.90;;;;;;4980243;28;20061;-75
2022/10/08 00:25:12;;;;;;;15.23;6.05;;;15.30;99.90;;;;;;4976927;28;20033;-77
2022/10/08 00:27:38;;;;;;;11.95;5.38;;;15.30;99.90;;;;;;4993817;28;20031;-79
2022/10/08 00:30:04;;;;;;;12.27;6.18;;;15.30;99.90;;;;;;4977910;28;20026;-79
2022/10/08 00:32:30;;;;;;;13.48;5.75;;;15.20;99.90;;;;;;4994150;28;20387;-79
2022/10/08 00:34:56;;;;;;;12.07;6.28;;;15.30;99.90;;;;;;4994867;28;20029;-79
2022/10/08 00:37:22;;;;;;;10.15;5.55;;;15.30;99.90;;;;;;4976714;28;20121;-76
2022/10/08 00:39:47;;;;;;;13.50;6.07;;;15.30;99.90;;;;;;4977305;28;20069;-76
2022/10/08 00:42:13;;;;;;;14.45;5.97;;;15.30;99.90;;;;;;4976616;28;20030;-76
2022/10/08 00:44:42;;;;;;;13.02;5.85;;;15.20;99.90;;;;;;4977080;28;20030;-76
2022/10/08 00:47:18;;;;;;;17.77;5.95;;;15.20;99.90;;;;;;4994264;28;20053;-80
2022/10/08 00:49:46;;;;;;;13.80;6.35;;;15.20;99.90;;;;;;4994609;28;20061;-77
2022/10/08 00:52:12;;;;;;;13.20;6.85;;;15.20;99.90;;;;;;4992638;28;20085;-77
2022/10/08 00:54:37;;;;;;;16.98;6.20;;;15.20;99.90;;;;;;4977165;28;20030;-77
2022/10/08 00:57:05;;;;;;;15.27;6.35;;;15.20;99.90;;;;;;4976983;28;20026;-77
2022/10/08 00:59:35;;;;;;;10.95;5.60;;;15.30;99.90;;;;;;4976527;28;20038;-76
2022/10/08 01:02:01;;;;;;;12.63;6.15;;;15.20;99.90;;;;;;4993969;28;20039;-76
2022/10/08 01:04:26;;;;;;;12.93;5.95;;;15.20;99.90;;;;;;4993592;28;20459;-76
2022/10/08 01:07:20;;;;;;;16.38;6.13;;;15.20;99.90;;;;;;4976488;28;20026;-76
2022/10/08 01:09:57;;;;;;;11.55;5.43;;;15.20;99.90;;;;;;4992979;28;20027;-76
2022/10/08 01:12:40;;;;;;;13.05;6.00;;;15.20;99.90;;;;;;4992510;28;20026;-76
2022/10/08 01:15:25;;;;;;;14.35;6.18;;;15.20;99.90;;;;;;4977171;28;20049;-78
2022/10/08 01:18:14;;;;;;;12.95;6.60;;;15.20;99.90;;;;;;4993472;28;20026;-78
2022/10/08 01:20:58;;;;;;;13.27;5.97;;;15.20;99.90;;;;;;4994581;28;20037;-81
2022/10/08 01:23:37;;;;;;;13.60;6.05;;;15.20;99.90;;;;;;4976311;28;20022;-80
2022/10/08 01:26:18;;;;;;;10.45;5.97;;;15.10;99.90;;;;;;4977156;28;20038;-80
2022/10/08 01:29:10;;;;;;;10.07;5.85;;;15.20;99.90;;;;;;4976694;28;20048;-79
2022/10/08 01:32:06;;;;;;;14.13;6.20;;;15.20;99.90;;;;;;4976455;28;20078;-78
2022/10/08 01:34:51;;;;;;;10.32;5.70;;;15.20;99.90;;;;;;4967860;28;20030;-78
2022/10/08 01:37:30;;;;;;;12.82;6.10;;;15.20;99.90;;;;;;4976364;28;20026;-78
2022/10/08 01:39:59;;;;;;;14.32;6.45;;;15.20;99.90;;;;;;4993975;28;20030;-79
2022/10/08 01:42:27;;;;;;;11.32;5.60;;;15.20;99.90;;;;;;4993326;28;20077;-81
2022/10/08 01:45:08;;;;;;;12.55;5.63;;;15.30;99.90;;;;;;4976612;28;20050;-78
2022/10/08 01:47:38;;;;;;;14.63;6.50;;;15.20;99.90;;;;;;4975943;28;20046;-78
2022/10/08 01:50:13;;;;;;;12.00;5.65;;;15.30;99.90;;;;;;4993956;28;20034;-78
2022/10/08 01:52:46;;;;;;;10.20;5.57;;;15.30;99.90;;;;;;4976268;28;20052;-78
2022/10/08 01:55:28;;;;;;;10.38;5.88;;;15.40;99.90;;;;;;4976514;28;20026;-81
2022/10/08 01:58:00;;;;;;;9.23;5.05;;;15.40;99.90;;;;;;4977132;28;20133;-80
2022/10/08 02:00:25;;;;;;;12.27;5.07;;;15.40;99.90;;;;;;4976245;28;20026;-77
2022/10/08 02:02:53;;;;;;;11.55;5.43;;;15.50;99.90;;;;;;4976449;28;20058;-78
2022/10/08 02:05:22;;;;;;;14.98;5.88;;;15.50;99.90;;;;;;4993090;28;20486;-78
2022/10/08 02:07:48;;;;;;;13.55;5.10;;;15.50;99.90;;;;;;4976513;28;20125;-78
2022/10/08 02:10:17;;;;;;;9.82;5.28;;;15.50;99.90;;;;;;4993523;28;20031;-80
2022/10/08 02:12:43;;;;;;;11.85;5.25;;;15.50;99.90;;;;;;4976972;28;20507;-78
2022/10/08 02:15:22;;;;;;;10.25;4.90;;;15.60;99.90;;;;;;4976596;28;20121;-77
2022/10/08 02:18:09;;;;;;;10.20;5.50;;;15.60;99.90;;;;;;4976415;28;20387;-77
2022/10/08 02:21:03;;;;;;;7.22;4.70;;;15.70;99.90;;;;;;4993380;28;20053;-81
2022/10/08 02:23:40;;;;;;;13.52;5.35;;;15.70;99.90;;;;;;4974437;28;20038;-81
2022/10/08 02:26:25;;;;;;;11.68;6.18;;;15.70;99.90;;;;;;4992961;28;20399;-81
2022/10/08 02:29:01;;;;;;;10.85;4.97;;;15.70;99.90;;;;;;4976619;28;20060;-81
2022/10/08 02:31:48;;;;;;;13.70;5.47;;;15.70;99.90;;;;;;4975925;28;20048;-81
2022/10/08 02:34:26;;;;;;;14.57;5.38;;;15.80;99.90;;;;;;4992608;28;20030;-82
2022/10/08 02:37:00;;;;;;;11.02;4.85;;;15.80;99.90;;;;;;4980092;28;20026;-79
2022/10/08 02:39:28;;;;;;;11.35;5.22;;;15.80;99.90;;;;;;4979569;28;20502;-80
2022/10/08 02:41:57;;;;;;;8.27;4.70;;;15.80;99.90;;;;;;4997280;28;20092;-79
2022/10/08 02:44:31;;;;;;;11.30;4.90;;;15.80;99.90;;;;;;4979013;28;20030;-77
2022/10/08 02:47:01;;;;;;;9.95;4.95;;;15.90;99.90;;;;;;4980039;28;20030;-76
2022/10/08 02:49:32;;;;;;;10.82;5.07;;;15.90;99.90;;;;;;4996683;28;20097;-77
2022/10/08 02:52:00;;;;;;;12.25;4.53;;;15.90;99.90;;;;;;4979602;28;20050;-78
2022/10/08 02:54:31;;;;;;;10.80;5.15;;;15.90;99.90;;;;;;4996056;28;20026;-77
2022/10/08 02:57:10;;;;;;;10.18;5.38;;;15.80;99.90;;;;;;4996081;28;20027;-78
2022/10/08 02:59:36;;;;;;;10.90;5.25;;;15.80;99.90;;;;;;4996745;28;20018;-78
2022/10/08 03:02:03;;;;;;;13.65;5.85;;;15.80;99.90;;;;;;4979820;28;20026;-78
2022/10/08 03:04:37;;;;;;;10.73;5.68;;;15.80;99.90;;;;;;4978903;28;20125;-78
2022/10/08 03:07:04;;;;;;;11.43;6.25;;;15.80;99.90;;;;;;4996892;28;20038;-78
2022/10/08 03:09:37;;;;;;;14.85;5.93;;;15.70;99.90;;;;;;4979113;28;20030;-78
2022/10/08 03:12:04;;;;;;;13.07;6.00;;;15.60;99.90;;;;;;4997216;28;20041;-78
2022/10/08 03:14:33;;;;;;;15.32;6.18;;;15.50;99.90;;;;;;4996605;28;20030;-78
2022/10/08 03:16:59;;;;;;;10.55;5.75;;;15.60;99.90;;;;;;4979496;28;20029;-78
2022/10/08 03:19:26;;;;;;;13.73;5.97;;;15.50;99.90;;;;;;4996111;28;20023;-78
2022/10/08 03:21:55;;;;;;;12.10;6.05;;;15.50;99.90;;;;;;4996611;28;20475;-77
2022/10/08 03:24:21;;;;;;;12.98;5.90;;;15.50;99.90;;;;;;4995803;28;20027;-78
2022/10/08 03:26:46;;;;;;;14.43;5.72;;;15.50;99.90;;;;;;4979238;28;20125;-78
2022/10/08 03:29:12;;;;;;;14.65;6.15;;;15.50;99.90;;;;;;4995415;28;20113;-78
2022/10/08 03:31:38;;;;;;;12.65;6.50;;;15.50;99.90;;;;;;4996135;28;20034;-78
2022/10/08 03:34:04;;;;;;;11.18;5.32;;;15.60;99.90;;;;;;4979472;28;20034;-79
2022/10/08 03:36:30;;;;;;;12.10;6.07;;;15.60;99.90;;;;;;4996217;28;20026;-78
2022/10/08 03:38:56;;;;;;;12.52;6.13;;;15.60;99.90;;;;;;4979492;28;20452;-77
2022/10/08 03:41:21;;;;;;;11.90;6.15;;;15.60;99.90;;;;;;4995946;28;20113;-77
2022/10/08 03:43:47;;;;;;;13.82;6.13;;;15.50;99.90;;;;;;4978915;28;20526;-77
2022/10/08 03:46:14;;;;;;;10.30;6.07;;;15.50;99.90;;;;;;4995592;28;20038;-77
2022/10/08 03:48:40;;;;;;;12.57;5.90;;;15.50;99.90;;;;;;4977816;28;20110;-77
2022/10/08 03:51:13;;;;;;;11.52;6.10;;;15.60;99.90;;;;;;4978350;28;20060;-77
2022/10/08 03:53:40;;;;;;;9.15;6.00;;;15.60;99.90;;;;;;4995615;28;20034;-77
2022/10/08 03:56:12;;;;;;;10.43;5.95;;;15.60;99.90;;;;;;4995890;28;20105;-77
2022/10/08 03:58:38;;;;;;;13.80;6.05;;;15.60;99.90;;;;;;4978306;28;20023;-77
2022/10/08 04:01:10;;;;;;;11.45;5.72;;;15.60;99.90;;;;;;4995935;28;20057;-77
2022/10/08 04:03:36;;;;;;;10.02;5.28;;;15.60;99.90;;;;;;4977773;28;20537;-77
2022/10/08 04:06:02;;;;;;;10.27;5.45;;;15.60;99.90;;;;;;4994490;28;20117;-78
2022/10/08 04:08:28;;;;;;;10.65;5.72;;;15.60;99.90;;;;;;4977974;28;20079;-80
2022/10/08 04:10:54;;;;;;;10.05;5.90;;;15.60;99.90;;;;;;4995591;28;20113;-80
2022/10/08 04:13:20;;;;;;;13.38;5.95;;;15.50;99.90;;;;;;4978268;28;20113;-82
2022/10/08 04:15:47;;;;;;;12.98;6.00;;;15.60;99.90;;;;;;4978067;28;20035;-79
2022/10/08 04:18:13;;;;;;;10.18;5.85;;;15.60;99.90;;;;;;4978349;28;20026;-78
2022/10/08 04:20:40;;;;;;;9.80;5.88;;;15.60;99.90;;;;;;4993433;28;20518;-79
2022/10/08 04:23:06;;;;;;;12.02;5.40;;;15.60;99.90;;;;;;4977746;28;20058;-79
2022/10/08 04:25:33;;;;;;;10.48;5.93;;;15.60;99.90;;;;;;4977059;28;20035;-76
2022/10/08 04:27:58;;;;;;;11.25;6.10;;;15.60;99.90;;;;;;4977598;28;20027;-76
2022/10/08 04:30:24;;;;;;;10.02;5.68;;;15.60;99.90;;;;;;4994319;28;20038;-77
2022/10/08 04:32:50;;;;;;;12.10;5.18;;;15.60;99.90;;;;;;4994610;28;20435;-76
2022/10/08 04:35:15;;;;;;;11.70;5.75;;;15.60;99.90;;;;;;4994834;28;20041;-77
2022/10/08 04:37:41;;;;;;;10.95;5.88;;;15.60;99.90;;;;;;4994451;28;20121;-77
2022/10/08 04:40:07;;;;;;;14.70;5.75;;;15.60;99.90;;;;;;4995035;28;20042;-77
2022/10/08 04:42:33;;;;;;;11.65;5.72;;;15.50;99.90;;;;;;4977201;28;20030;-77
2022/10/08 04:44:59;;;;;;;10.27;5.72;;;15.40;99.90;;;;;;4995062;28;20471;-77
2022/10/08 04:47:24;;;;;;;10.32;5.75;;;15.40;99.90;;;;;;4977250;28;20095;-79
2022/10/08 04:49:50;;;;;;;10.88;5.32;;;15.40;99.90;;;;;;4995091;28;20381;-78
2022/10/08 04:52:17;;;;;;;8.93;4.97;;;15.40;99.90;;;;;;4974295;28;20046;-78
2022/10/08 04:54:43;;;;;;;10.40;5.32;;;15.30;99.90;;;;;;4974153;28;20311;-78
2022/10/08 04:57:09;;;;;;;9.23;6.07;;;15.30;99.90;;;;;;4975563;28;20062;-78
2022/10/08 04:59:35;;;;;;;10.85;6.00;;;15.30;99.90;;;;;;4974467;28;20543;-78
2022/10/08 05:02:00;;;;;;;12.43;5.40;;;15.20;99.90;;;;;;4975466;28;20031;-78
2022/10/08 05:04:26;;;;;;;10.55;5.43;;;15.20;99.90;;;;;;4974115;28;20065;-79
2022/10/08 05:06:51;;;;;;;8.93;5.40;;;15.20;99.90;;;;;;4974423;28;20055;-78
2022/10/08 05:09:17;;;;;;;11.63;5.50;;;15.20;99.90;;;;;;4974322;28;20029;-78
2022/10/08 05:11:43;;;;;;;9.45;5.70;;;15.20;99.90;;;;;;4973371;28;20081;-78
2022/10/08 05:14:08;;;;;;;12.32;5.97;;;15.20;99.90;;;;;;4973954;28;20033;-78
2022/10/08 05:16:35;;;;;;;16.75;5.97;;;15.10;99.90;;;;;;4973219;28;20452;-78
2022/10/08 05:19:02;;;;;;;12.25;5.97;;;15.10;99.90;;;;;;4973944;28;20081;-78
2022/10/08 05:21:29;;;;;;;10.90;5.40;;;15.10;99.90;;;;;;4973290;28;20026;-81
2022/10/08 05:24:00;;;;;;;8.38;5.53;;;15.10;99.90;;;;;;4974918;28;20023;-80
2022/10/08 05:26:29;;;;;;;9.90;5.60;;;15.00;99.90;;;;;;4973751;28;20069;-84
2022/10/08 05:28:56;;;;;;;11.73;6.10;;;15.00;99.90;;;;;;4973887;28;20030;-80
2022/10/08 05:31:23;;;;;;;9.07;5.20;;;15.00;99.90;;;;;;4974802;28;20046;-83
2022/10/08 05:33:49;;;;;;;8.40;5.30;;;14.90;99.90;;;;;;4974850;28;20039;-81
2022/10/08 05:36:24;;;;;;;11.27;6.07;;;14.90;99.90;;;;;;4973850;28;20082;-81
2022/10/08 05:38:50;;;;;;;14.88;6.15;;;14.80;99.90;;;;;;4973743;28;20453;-81
2022/10/08 05:41:18;;;;;;;10.48;6.30;;;14.80;99.90;;;;;;4973541;28;20031;-81
2022/10/08 05:43:44;;;;;;;12.52;6.43;;;14.80;99.90;;;;;;4972781;28;20039;-79
2022/10/08 05:46:10;;;;;;;13.52;6.40;;;14.80;99.90;;;;;;4973582;28;20034;-79
2022/10/08 05:48:37;;;;;;;11.40;6.60;;;14.80;99.90;;;;;;4972675;28;20027;-81
2022/10/08 05:51:13;;;;;;;9.48;6.32;;;14.70;99.90;;;;;;4973765;28;20404;-81
2022/10/08 05:53:41;;;;;;;10.15;6.15;;;14.70;99.90;;;;;;4974518;28;20026;-81
2022/10/08 05:56:09;;;;;;;15.52;8.02;;;14.70;99.90;;;;;;4973697;28;20030;-81
2022/10/08 05:58:36;;;;;;;10.70;6.80;;;14.70;99.90;;;;;;4974032;28;20023;-81
2022/10/08 06:01:05;;;;;;;13.77;6.55;;;14.60;99.90;;;;;;4973306;28;20034;-80
2022/10/08 06:03:31;;;;;;;15.73;6.93;;;14.60;99.90;;;;;;4973945;28;20031;-80
2022/10/08 06:06:05;;;;;;;14.00;6.82;;;14.60;99.90;;;;;;4973535;28;20130;-80
2022/10/08 06:08:31;;;;;;;11.73;6.72;;;14.60;99.90;;;;;;4973086;28;20093;-81
2022/10/08 06:10:58;;;;;;;11.40;6.40;;;14.60;99.90;;;;;;4977043;28;20478;-80
2022/10/08 06:13:24;;;;;;;10.98;6.07;;;14.60;99.90;;;;;;4977519;28;20535;-80
2022/10/08 06:15:57;;;;;;;12.98;6.43;;;14.60;99.90;;;;;;4978214;28;20035;-78
2022/10/08 06:18:25;;;;;;;12.63;6.15;;;14.60;99.90;;;;;;4977411;28;20054;-78
2022/10/08 06:20:50;;;;;;;10.50;6.70;;;14.60;99.90;;;;;;4977070;28;20062;-77
2022/10/08 06:23:17;;;;;;;11.43;6.10;;;14.50;99.90;;;;;;4977301;28;20031;-78
2022/10/08 06:25:43;;;;;;;11.70;6.30;;;14.50;99.90;;;;;;4977095;28;20480;-78
2022/10/08 06:28:09;;;;;;;15.18;6.70;;;14.50;99.90;;;;;;4978520;28;20081;-78
2022/10/08 06:30:34;;;;;;;15.45;6.72;;;14.50;99.90;;;;;;4976839;28;20027;-77
2022/10/08 06:33:00;;;;;;;12.48;6.65;;;14.40;99.90;;;;;;4976768;28;20377;-77
2022/10/08 06:35:26;;;;;;;10.77;5.82;;;14.50;99.90;;;;;;4976679;28;20365;-79
2022/10/08 06:37:52;;;;;;;14.00;6.15;;;14.50;99.90;;;;;;4976605;28;20034;-77
2022/10/08 06:40:18;;;;;;;9.18;5.93;;;14.50;99.90;;;;;;4976547;28;20086;-79
2022/10/08 06:42:43;;;;;;;8.82;6.00;;;14.60;99.90;;;;;;4992356;28;20531;-77
2022/10/08 06:45:09;;;;;;;12.68;5.97;;;14.50;99.90;;;;;;4977988;28;20026;-77
2022/10/08 06:47:35;;;;;;;10.25;5.90;;;14.60;99.90;;;;;;4976554;28;20165;-77
2022/10/08 06:50:00;;;;;;;11.02;5.85;;;14.50;99.90;;;;;;4976870;28;20042;-77
2022/10/08 06:52:26;;;;;;;12.60;5.68;;;14.60;99.90;;;;;;4976413;28;20396;-77
2022/10/08 06:54:52;;;;;;;12.50;5.97;;;14.60;99.90;;;;;;4975671;28;20486;-77
2022/10/08 06:57:17;;;;;;;13.32;6.22;;;14.50;99.90;;;;;;4976101;28;20117;-76
2022/10/08 06:59:43;;;;;;;12.73;5.25;;;14.50;99.90;;;;;;4975587;28;20442;-76
2022/10/08 07:02:10;;;;;;;9.55;5.28;;;14.60;99.90;;;;;;4977235;28;20515;-76
2022/10/08 07:04:36;;;;;;;15.38;5.90;;;14.50;99.90;;;;;;4975440;28;20042;-76
2022/10/08 07:07:02;;;;;;;12.45;5.50;;;14.60;99.90;;;;;;4975886;28;20023;-77
2022/10/08 07:09:27;;;;;;;13.60;6.15;;;14.50;99.90;;;;;;4976070;28;20507;-77
2022/10/08 07:11:53;;;;;;;10.80;5.70;;;14.50;99.90;;;;;;4975849;28;20137;-77
2022/10/08 07:14:19;;;;;;;11.60;5.57;;;14.60;99.90;;;;;;4975666;28;20030;-80
2022/10/08 07:16:44;;;;;;;14.70;5.57;;;14.50;99.90;;;;;;4975464;28;20034;-80
2022/10/08 07:19:10;;;;;;;14.05;5.10;;;14.50;99.90;;;;;;4976753;28;20033;-80
2022/10/08 07:21:35;;;;;;;8.77;5.47;;;14.50;99.90;;;;;;4975546;28;20031;-80
2022/10/08 07:24:01;;;;;;;13.77;5.10;;;14.50;99.90;;;;;;4976813;28;20113;-80
2022/10/08 07:26:31;;;;;;;13.27;5.10;;;14.60;99.90;;;;;;4975838;28;20023;-79
2022/10/08 07:29:07;;;;;;;11.15;5.07;;;14.50;99.90;;;;;;4976786;28;20071;-80
2022/10/08 07:31:35;;;;;;;8.90;4.82;;;14.60;99.90;;;;;;4975038;28;20042;-83
2022/10/08 07:34:03;;;;;;;12.10;5.13;;;14.60;99.90;;;;;;4975676;28;20484;-78
2022/10/08 07:36:29;;;;;;;10.57;4.43;;;14.60;99.90;;;;;;4975307;28;20461;-77
2022/10/08 07:38:58;;;;;;;10.45;4.43;;;14.70;99.90;;;;;;4974949;28;20027;-78
2022/10/08 07:41:23;;;;;;;9.88;4.55;;;14.70;99.90;;;;;;4976335;28;20525;-78
2022/10/08 07:43:54;;;;;;;9.70;4.05;;;14.80;99.90;;;;;;4976167;28;20023;-77
2022/10/08 07:46:19;;;;;;;7.72;4.45;;;14.80;99.90;;;;;;4975494;28;20026;-77
2022/10/08 07:48:45;;;;;;;9.57;4.45;;;14.80;99.90;;;;;;4974781;28;20034;-77
2022/10/08 07:51:17;;;;;;;10.68;3.75;;;14.80;99.90;;;;;;4990737;28;20050;-80
2022/10/08 07:53:43;;;;;;;9.30;4.20;;;14.80;99.90;;;;;;4974766;28;20033;-80
2022/10/08 07:56:11;;;;;;;14.05;4.20;;;14.80;99.90;;;;;;4976159;28;20035;-81
2022/10/08 07:58:37;;;;;;;8.52;4.13;;;14.80;99.90;;;;;;4974242;28;20019;-81
2022/10/08 08:01:05;;;;;;;11.65;3.60;;;14.80;99.90;;;;;;4974194;28;20653;-79
2022/10/08 08:03:31;;;;;;;9.68;3.70;;;14.80;99.90;;;;;;4974745;28;20031;-81
2022/10/08 08:06:15;;;;;;;6.60;3.42;;;14.80;99.90;;;;;;4971857;28;20035;-80
2022/10/08 08:08:43;;;;;;;7.53;3.33;;;14.90;99.90;;;;;;4973444;28;20018;-86
2022/10/08 08:11:11;;;;;;;6.03;3.40;;;14.90;99.90;;;;;;4972899;28;20034;-83
2022/10/08 08:13:38;;;;;;;7.45;3.15;;;14.90;99.90;;;;;;4973924;28;20023;-83
2022/10/08 08:16:10;;;;;;;7.63;3.20;;;14.90;99.90;;;;;;4975272;28;20555;-85
2022/10/08 08:18:38;;;;;;;6.68;3.22;;;14.90;99.90;;;;;;4974176;28;20093;-85
2022/10/08 08:21:13;;;;;;;10.77;3.17;;;15.00;99.90;;;;;;4975021;28;20042;-84
2022/10/08 08:23:42;;;;;;;8.02;2.80;;;15.00;99.90;;;;;;4975437;28;20054;-78
2022/10/08 08:26:11;;;;;;;8.32;2.55;;;15.00;99.90;;;;;;4976006;28;20026;-86
2022/10/08 08:28:37;;;;;;;8.50;2.85;;;15.10;99.90;;;;;;4990099;28;20022;-80
2022/10/08 08:31:15;;;;;;;8.55;3.15;;;15.10;99.90;;;;;;4974058;28;20050;-82
2022/10/08 08:33:45;;;;;;;6.80;2.53;;;15.10;99.90;;;;;;4969901;28;20058;-81
2022/10/08 08:36:11;;;;;;;9.13;3.20;;;15.10;99.90;;;;;;4974220;28;20034;-83
2022/10/08 08:38:37;;;;;;;6.18;2.72;;;15.10;99.90;;;;;;4973454;28;20027;-83
2022/10/08 08:41:40;;;;;;;8.10;2.60;;;15.10;99.90;;;;;;4973783;28;20034;-83
2022/10/08 08:44:15;;;;;;;8.63;3.20;;;15.10;99.90;;;;;;4986198;28;20031;-83
2022/10/08 08:46:46;;;;;;;10.43;3.65;;;15.20;99.90;;;;;;4970960;28;20357;-80
2022/10/08 08:49:39;;;;;;;5.00;2.60;;;15.20;99.90;;;;;;4974104;28;20031;-81
2022/10/08 08:52:06;;;;;;;12.43;3.15;;;15.20;99.90;;;;;;4962050;28;20075;-79
2022/10/08 08:54:32;;;;;;;9.23;2.90;;;15.20;99.90;;;;;;4988999;28;20543;-77
2022/10/08 08:57:34;;;;;;;6.22;2.13;;;15.20;99.90;;;;;;4972574;28;20085;-82
2022/10/08 09:00:17;;;;;;;7.32;2.25;;;15.30;99.90;;;;;;4944619;28;20031;-82
2022/10/08 09:02:52;;;;;;;10.00;2.75;;;15.20;99.90;;;;;;4974181;28;20035;-81
2022/10/08 09:05:23;;;;;;;8.43;2.70;;;15.30;99.90;;;;;;4974666;28;20031;-81
2022/10/08 09:07:56;;;;;;;7.07;2.28;;;15.40;99.90;;;;;;4973624;28;20469;-81
2022/10/08 09:10:27;;;;;;;9.27;2.42;;;15.40;99.90;;;;;;4974856;28;20035;-80
2022/10/08 09:12:54;;;;;;;8.75;2.00;;;15.40;99.90;;;;;;4989311;28;20022;-78
2022/10/08 09:15:26;;;;;;;7.47;1.70;;;15.50;99.90;;;;;;4974488;28;20045;-78
2022/10/08 09:17:52;;;;;;;;;;;15.50;99.90;;;;;;4973290;28;20592;-77
2022/10/08 09:20:21;;;;;;;5.35;1.70;;;15.50;99.90;;;;;;4973343;28;20001;-78
2022/10/08 09:22:48;;;;;;;5.38;2.30;;;15.50;99.90;;;;;;4988539;28;20049;-79
2022/10/08 09:25:18;;;;;;;9.05;2.00;;;15.60;99.90;;;;;;4972727;28;20041;-77
2022/10/08 09:27:56;;;;;;;9.38;2.15;;;15.60;99.90;;;;;;4988395;28;20035;-83
2022/10/08 09:30:43;;;;;;;3.63;1.70;;;15.70;99.90;;;;;;4989120;28;20038;-77
2022/10/08 09:33:17;;;;;;;6.82;1.67;;;15.70;99.90;;;;;;4969853;28;20392;-77
2022/10/08 09:35:46;;;;;;;5.68;1.58;;;15.70;99.90;;;;;;4971290;28;20031;-77
2022/10/08 09:38:21;;;;;;;5.13;1.17;;;15.80;99.90;;;;;;4968584;28;20034;-81
2022/10/08 09:41:17;;;;;;;8.70;1.20;;;15.80;99.90;;;;;;4972246;28;20037;-81
2022/10/08 09:43:44;;;;;;;3.80;1.48;;;15.80;99.90;;;;;;4969970;28;20063;-78
2022/10/08 09:46:31;;;;;;;6.47;1.20;;;15.80;99.90;;;;;;4972785;28;20057;-79
2022/10/08 09:49:19;;;;;;;12.48;1.67;;;15.80;99.90;;;;;;4954341;28;20054;-78
2022/10/08 09:51:45;;;;;;;4.38;1.23;;;15.90;99.90;;;;;;4971786;28;20051;-78
2022/10/08 09:54:15;;;;;;;12.05;1.60;;;15.90;99.90;;;;;;4972848;28;20499;-80
2022/10/08 09:56:41;;;;;;;6.90;1.35;;;15.90;99.90;;;;;;4972261;28;20118;-77
2022/10/08 09:59:17;;;;;;;7.00;2.42;;;16.00;99.90;;;;;;4974013;28;20154;-79
2022/10/08 10:01:46;;;;;;;9.73;4.47;;;16.00;99.90;;;;;;4973344;28;20057;-81
2022/10/08 10:04:39;;;;;;;7.00;1.50;;;16.00;99.90;;;;;;4974142;28;20063;-79
2022/10/08 10:07:05;;;;;;;4.93;1.58;;;16.00;99.90;;;;;;4970690;28;20039;-76
2022/10/08 10:09:46;;;;;;;6.30;1.52;;;16.00;99.90;;;;;;4969127;28;20130;-77
2022/10/08 10:12:31;;;;;;;8.23;1.58;;;16.10;99.90;;;;;;4969170;28;20034;-77
2022/10/08 10:15:18;;;;;;;5.53;1.10;;;16.10;99.90;;;;;;4970410;28;20154;-76
2022/10/08 10:18:03;;;;;;;3.15;1.27;;;16.20;99.90;;;;;;4971871;28;20050;-75
2022/10/08 10:20:40;;;;;;;31.73;2.88;;;16.20;99.90;;;;;;4985462;28;20058;-81
2022/10/08 10:23:08;;;;;;;9.68;1.45;;;16.30;99.90;;;;;;4972707;28;20129;-79
2022/10/08 10:25:46;;;;;;;5.63;1.30;;;16.40;99.90;;;;;;4971938;28;20536;-77
2022/10/08 10:28:15;;;;;;;5.70;1.33;;;16.60;99.90;;;;;;4986203;28;20478;-77
2022/10/08 10:31:03;;;;;;;7.78;0.95;;;16.70;99.90;;;;;;4972251;28;20027;-82
2022/10/08 10:33:38;;;;;;;5.47;1.52;;;16.80;99.90;;;;;;4971345;28;20046;-82
2022/10/08 10:36:09;;;;;;;8.18;1.45;;;16.90;99.90;;;;;;4971783;28;20118;-82
2022/10/08 10:38:43;;;;;;;3.63;1.15;;;16.80;99.90;;;;;;4972211;28;20081;-83
2022/10/08 10:41:27;;;;;;;3.40;1.23;;;16.80;99.90;;;;;;4971884;28;20098;-80
2022/10/08 10:44:08;;;;;;;4.25;0.77;;;16.90;99.90;;;;;;4987043;28;20047;-82
2022/10/08 10:46:50;;;;;;;5.35;0.93;;;16.90;99.90;;;;;;4971543;28;20027;-81
2022/10/08 10:49:37;;;;;;;2.42;0.75;;;16.90;99.90;;;;;;4971623;28;20042;-82
2022/10/08 10:52:32;;;;;;;2.70;0.75;;;16.90;99.90;;;;;;4970805;28;20197;-80
2022/10/08 10:55:10;;;;;;;7.10;1.08;;;16.90;99.90;;;;;;4970528;28;20030;-82
2022/10/08 10:58:05;;;;;;;4.13;0.90;;;16.90;99.90;;;;;;4973302;28;20084;-82
2022/10/08 11:00:59;;;;;;;5.93;1.30;;;16.80;99.90;;;;;;4991043;28;20125;-82
2022/10/08 11:03:50;;;;;;;5.65;2.15;;;16.80;99.90;;;;;;4976439;28;20054;-82
2022/10/08 11:06:31;;;;;;;11.18;2.65;;;16.80;99.90;;;;;;4974964;28;20027;-84
2022/10/08 11:09:18;;;;;;;3.95;0.80;;;16.90;99.90;;;;;;4990100;28;20023;-79
2022/10/08 11:12:00;;;;;;;4.88;0.82;;;17.10;99.90;;;;;;4971705;28;20070;-78
2022/10/08 11:14:32;;;;;;;3.83;0.77;;;17.10;99.90;;;;;;4973083;28;20117;-78
2022/10/08 11:17:07;;;;;;;5.28;0.95;;;17.20;99.90;;;;;;4988703;28;20026;-78
2022/10/08 11:19:35;;;;;;;3.28;0.82;;;17.40;99.90;;;;;;4974429;28;20516;-80
2022/10/08 11:22:30;;;;;;;5.00;1.10;;;17.50;99.90;;;;;;4973195;28;20122;-81
2022/10/08 11:25:16;;;;;;;5.55;0.90;;;17.60;99.90;;;;;;4950909;28;20070;-77
2022/10/08 11:27:55;;;;;;;4.90;0.98;;;17.60;99.90;;;;;;4989297;28;20117;-78
2022/10/08 11:30:27;;;;;;;2.30;0.70;;;17.40;99.90;;;;;;4989105;28;20034;-78
2022/10/08 11:32:55;;;;;;;2.60;0.65;;;17.30;99.90;;;;;;4972868;28;20037;-78
2022/10/08 11:35:24;;;;;;;2.85;0.80;;;17.20;99.90;;;;;;4989962;28;20034;-79
2022/10/08 11:38:00;;;;;;;2.42;0.68;;;17.10;99.90;;;;;;4974809;28;20035;-81
2022/10/08 11:40:45;;;;;;;1.75;0.60;;;17.20;99.90;;;;;;4990288;28;20113;-79
2022/10/08 11:43:38;;;;;;;8.05;0.60;;;17.20;99.90;;;;;;4975301;28;20034;-79
2022/10/08 11:46:27;;;;;;;3.10;0.60;;;17.50;99.90;;;;;;4974282;28;20094;-79
2022/10/08 11:48:57;;;;;;;5.22;0.93;;;17.90;99.90;;;;;;4975322;28;20558;-80
2022/10/08 11:51:23;;;;;;;1.67;0.52;;;18.20;99.90;;;;;;4981774;28;20134;-80
2022/10/08 11:54:17;;;;;;;2.80;0.55;;;18.10;98.90;;;;;;4984594;28;20117;-79
2022/10/08 11:56:50;;;;;;;2.35;0.73;;;18.20;98.30;;;;;;4975181;28;20041;-80
2022/10/08 11:59:34;;;;;;;2.55;0.50;;;18.10;98.00;;;;;;4977222;28;20045;-81
2022/10/08 12:02:17;;;;;;;4.85;0.70;;;18.10;97.50;;;;;;4993477;28;20042;-80
2022/10/08 12:04:47;;;;;;;4.57;0.90;;;18.10;97.30;;;;;;4985426;28;20056;-79
2022/10/08 12:07:28;;;;;;;1.73;0.70;;;18.10;97.50;;;;;;4976800;28;20460;-79
2022/10/08 12:10:00;;;;;;;2.08;0.40;;;18.20;96.70;;;;;;4993181;28;20061;-80
2022/10/08 12:12:44;;;;;;;2.13;0.50;;;18.20;96.90;;;;;;4995269;28;20034;-80
2022/10/08 12:15:22;;;;;;;2.13;0.55;;;18.20;97.40;;;;;;4978388;28;20026;-80
2022/10/08 12:17:54;;;;;;;1.10;0.47;;;18.20;97.10;;;;;;4994306;28;20357;-79
2022/10/08 12:20:23;;;;;;;2.67;0.43;;;18.20;97.60;;;;;;4994505;28;20026;-79
2022/10/08 12:23:08;;;;;;;2.22;0.52;;;18.30;97.10;;;;;;4977710;28;20026;-80
2022/10/08 12:26:07;;;;;;;1.45;0.60;;;18.20;96.70;;;;;;4978436;28;20371;-80
2022/10/08 12:28:36;;;;;;;1.85;0.20;;;18.10;97.00;;;;;;4978347;28;20033;-79
2022/10/08 12:31:22;;;;;;;2.33;0.70;;;18.20;97.00;;;;;;4995380;28;20464;-80
2022/10/08 12:34:12;;;;;;;3.35;0.40;;;18.30;96.90;;;;;;4993964;28;20034;-80
2022/10/08 12:36:49;;;;;;;6.80;1.48;;;18.40;96.50;;;;;;4977928;28;20121;-80
2022/10/08 12:39:29;;;;;;;1.83;0.40;;;18.40;96.50;;;;;;4978269;28;20027;-79
2022/10/08 12:42:16;;;;;;;4.20;0.38;;;18.40;96.20;;;;;;4994874;28;20076;-79
2022/10/08 12:45:02;;;;;;;1.83;0.30;;;18.60;96.40;;;;;;4995079;28;20113;-80
2022/10/08 12:47:39;;;;;;;2.13;0.30;;;18.60;95.60;;;;;;4978299;28;20034;-80
2022/10/08 12:50:14;;;;;;;1.38;0.40;;;18.50;95.50;;;;;;4978057;28;20475;-80
2022/10/08 12:52:40;;;;;;;2.35;0.40;;;18.50;95.50;;;;;;4994533;28;20057;-81
2022/10/08 12:55:13;;;;;;;5.28;0.95;;;18.50;96.00;;;;;;4977893;28;20121;-80
2022/10/08 12:57:40;;;;;;;2.35;0.50;;;18.40;96.20;;;;;;4977486;28;20027;-80
2022/10/08 13:00:16;;;;;;;2.45;0.47;;;18.40;96.10;;;;;;4977745;28;20026;-80
2022/10/08 13:02:42;;;;;;;3.97;0.55;;;18.40;96.50;;;;;;4977317;28;20030;-80
2022/10/08 13:05:30;;;;;;;3.58;0.52;;;18.40;96.30;;;;;;4995075;28;20361;-79